Presque Isle, Wisconsin
Current Conditions -  °F | °C
As of 8:15 AM on Saturday 01 Nov 2014 (Local Time) from KD25 Reporting Station
Haze Haze  
Wind Chill:   Ceiling: Unl
Heat Index:   Visibility: 4mi
Dew Point:   Wind: 0mph
Humidity: 90%   Direction: NA
Pressure: 30.43"   Gusts: NA
Location:  46.25°N, 89.73°W
Report Text: KD25 011315Z AUTO 00000KT 4SM BR CLR M13/M14 A3043 RMK AO2 T11301143
Loading
Personal Weather Stations






























Interactive Weather Map
Tropical Storm Tracking
New forecast layout! Learn more

10-Day Weather Forecast

Advertisements
Track Severe Weather on mobile